Time;durP1;ratioP1;P1;durP2;ratioP2;P2;SDS_P1;SDS_P2;PMS_P1;PMS_P2;Temp;Humidity;BMP_temperature;BMP_pressure;BME280_temperature;BME280_humidity;BME280_pressure;Samples;Min_cycle;Max_cycle;Signal;HPM_P1;HPM_P2
2023/12/06 00:00:06;;;;;;;37.60;19.83;;;4.40;99.90;;;4.72;77.45;99818.84;5078350;28;20079;-83
2023/12/06 00:02:35;;;;;;;37.28;19.65;;;4.40;99.90;;;4.72;77.06;99824.13;5064241;28;20135;-83
2023/12/06 00:05:03;;;;;;;41.97;20.75;;;4.40;99.90;;;4.71;76.94;99828.59;5045410;28;20116;-83
2023/12/06 00:07:32;;;;;;;36.85;19.65;;;4.40;99.90;;;4.68;76.91;99834.25;5045884;28;20075;-83
2023/12/06 00:10:03;;;;;;;38.53;20.17;;;4.40;99.90;;;4.68;76.65;99823.66;5052552;28;20108;-83
2023/12/06 00:12:35;;;;;;;45.47;21.65;;;4.40;99.90;;;4.67;76.65;99829.97;5016335;28;20052;-83
2023/12/06 00:15:07;;;;;;;42.20;22.10;;;4.40;99.90;;;4.65;76.90;99832.81;5049598;28;20044;-83
2023/12/06 00:17:40;;;;;;;42.33;23.17;;;4.40;99.90;;;4.47;76.60;99836.88;5085149;28;20060;-83
2023/12/06 00:20:17;;;;;;;42.72;21.58;;;4.30;99.90;;;4.43;76.93;99841.69;5078973;28;20055;-83
2023/12/06 00:23:09;;;;;;;38.65;20.70;;;4.20;99.90;;;4.38;77.33;99844.09;5065544;28;20098;-83
2023/12/06 00:25:55;;;;;;;40.83;20.33;;;4.20;99.90;;;4.42;77.39;99831.34;5056028;28;20049;-83
2023/12/06 00:28:23;;;;;;;38.28;19.90;;;4.20;99.90;;;4.47;77.31;99840.34;5046483;28;20052;-83
2023/12/06 00:30:50;;;;;;;41.33;20.73;;;4.30;99.90;;;4.49;77.03;99840.13;5045779;28;20052;-83
2023/12/06 00:33:21;;;;;;;40.75;20.80;;;4.30;99.90;;;4.45;76.85;99855.56;5030359;28;20071;-83
2023/12/06 00:35:51;;;;;;;42.77;21.23;;;4.20;99.90;;;4.46;76.56;99853.72;5064423;28;20435;-83
2023/12/06 00:38:18;;;;;;;44.75;22.42;;;4.20;99.90;;;4.45;76.68;99850.28;5047676;28;20055;-83
2023/12/06 00:40:49;;;;;;;44.50;22.30;;;4.20;99.90;;;4.44;76.19;99856.56;5046111;28;20052;-83
2023/12/06 00:43:18;;;;;;;45.00;21.92;;;4.20;99.90;;;4.34;76.11;99858.66;5088047;28;20040;-83
2023/12/06 00:45:48;;;;;;;44.00;21.20;;;4.10;99.90;;;4.25;76.40;99846.59;5068930;28;20029;-83
2023/12/06 00:48:15;;;;;;;43.45;22.10;;;4.00;99.90;;;4.10;76.83;99860.63;5069504;28;20049;-83
2023/12/06 00:50:45;;;;;;;42.40;21.08;;;3.90;99.90;;;4.11;77.41;99862.25;5048246;28;20041;-83
2023/12/06 00:53:13;;;;;;;43.67;21.33;;;3.90;99.90;;;4.18;77.54;99858.88;5049872;28;20048;-83
2023/12/06 00:55:40;;;;;;;47.03;22.42;;;3.90;99.90;;;4.16;77.07;99866.19;5073658;28;20036;-83
2023/12/06 00:58:08;;;;;;;42.75;20.42;;;4.00;99.90;;;4.18;77.17;99864.97;5020032;28;20094;-83
2023/12/06 01:00:37;;;;;;;43.33;20.83;;;3.90;99.90;;;4.22;77.01;99868.06;5087997;28;20071;-83
2023/12/06 01:03:05;;;;;;;41.40;20.05;;;4.00;99.90;;;4.23;77.18;99872.34;5069901;28;20041;-83
2023/12/06 01:05:36;;;;;;;42.78;21.10;;;4.00;99.90;;;4.26;77.16;99871.97;5086801;28;20052;-83
2023/12/06 01:08:09;;;;;;;39.97;20.55;;;4.00;99.90;;;4.12;77.28;99871.81;5069617;28;20503;-83
2023/12/06 01:10:44;;;;;;;45.28;22.48;;;4.00;99.90;;;4.19;77.39;99881.63;5064780;28;20499;-83
2023/12/06 01:13:17;;;;;;;45.92;22.02;;;4.00;99.90;;;4.23;77.79;99882.91;5067895;28;20056;-83
2023/12/06 01:15:44;;;;;;;50.50;24.42;;;4.20;99.90;;;4.23;77.18;99894.28;5050629;28;20075;-83
2023/12/06 01:18:17;;;;;;;46.65;23.05;;;4.00;99.90;;;4.23;77.36;99898.72;5033549;28;20431;-83
2023/12/06 01:20:44;;;;;;;47.88;22.55;;;4.00;99.90;;;4.22;76.85;99887.38;5082769;28;20060;-83
2023/12/06 01:23:15;;;;;;;49.28;24.02;;;4.00;99.90;;;4.08;77.40;99894.28;5088707;28;20492;-83
2023/12/06 01:25:53;;;;;;;49.00;24.35;;;3.90;99.90;;;4.13;77.49;99894.56;5081386;28;20049;-83
2023/12/06 01:28:27;;;;;;;48.45;24.00;;;3.90;99.90;;;4.17;77.50;99896.84;5068410;28;20075;-83
2023/12/06 01:30:58;;;;;;;51.40;22.90;;;3.90;99.90;;;4.17;77.18;99905.56;5068466;28;20115;-83
2023/12/06 01:33:26;;;;;;;48.00;22.58;;;3.90;99.90;;;4.18;77.48;99901.91;5068065;28;20079;-83
2023/12/06 01:35:53;;;;;;;47.15;21.95;;;3.90;99.90;;;4.17;76.77;99910.03;5049739;28;20048;-83
2023/12/06 01:38:30;;;;;;;52.22;24.00;;;3.90;99.90;;;4.18;77.34;99911.66;5016887;28;20077;-83
2023/12/06 01:41:06;;;;;;;51.20;23.60;;;3.90;99.90;;;4.16;76.78;99914.50;5085206;28;20051;-83
2023/12/06 01:43:36;;;;;;;46.88;22.85;;;4.00;99.90;;;4.11;77.60;99908.94;5033514;28;20044;-83
2023/12/06 01:46:07;;;;;;;47.90;23.15;;;3.90;99.90;;;3.98;77.46;99914.84;5055663;28;20051;-83
2023/12/06 01:48:36;;;;;;;50.53;22.55;;;3.80;99.90;;;4.04;78.06;99921.22;5070543;28;20048;-83
2023/12/06 01:51:05;;;;;;;48.45;21.58;;;3.80;99.90;;;4.08;77.61;99922.50;5053436;28;20071;-83
2023/12/06 01:53:34;;;;;;;49.40;24.08;;;3.90;99.90;;;4.11;77.56;99922.97;5051801;28;20530;-83
2023/12/06 01:56:06;;;;;;;52.85;24.55;;;3.90;99.90;;;4.10;77.27;99928.44;5050370;28;20570;-83
2023/12/06 01:58:38;;;;;;;60.42;27.30;;;3.90;99.90;;;4.05;77.27;99922.84;5050993;28;20079;-84
2023/12/06 02:01:06;;;;;;;55.80;25.77;;;3.80;99.90;;;4.03;77.67;99930.94;5069119;28;20044;-83
2023/12/06 02:03:36;;;;;;;58.05;27.10;;;3.80;99.90;;;4.07;77.48;99934.06;5071821;28;20052;-83
2023/12/06 02:06:07;;;;;;;55.28;26.35;;;3.80;99.90;;;4.00;77.54;99931.34;5088143;28;20044;-83
2023/12/06 02:08:40;;;;;;;60.60;26.63;;;3.80;99.90;;;4.01;77.59;99929.50;5071601;28;20071;-83
2023/12/06 02:11:08;;;;;;;58.22;28.85;;;3.90;99.90;;;3.85;78.01;99938.41;5054682;28;20041;-83
2023/12/06 02:13:36;;;;;;;65.05;28.50;;;3.70;99.90;;;3.86;77.94;99945.34;5035774;28;20052;-83
2023/12/06 02:16:06;;;;;;;61.80;27.45;;;3.70;99.90;;;3.91;77.88;99940.34;5070300;28;20045;-83
2023/12/06 02:18:34;;;;;;;63.97;28.52;;;3.70;99.90;;;3.91;77.90;99939.53;5069675;28;20059;-83
2023/12/06 02:21:02;;;;;;;66.88;30.50;;;3.70;99.90;;;3.94;77.94;99942.59;5088519;28;20070;-83
2023/12/06 02:23:35;;;;;;;62.13;28.70;;;3.70;99.90;;;3.93;78.22;99946.22;5091047;28;20067;-83
2023/12/06 02:26:05;;;;;;;65.72;30.85;;;3.70;99.90;;;3.86;78.03;99947.97;5090781;28;20041;-83
2023/12/06 02:28:32;;;;;;;62.58;29.75;;;3.70;99.90;;;3.86;78.28;99953.25;5090316;28;20154;-83
2023/12/06 02:31:01;;;;;;;64.43;29.60;;;3.80;99.90;;;3.94;78.43;99958.41;5072066;28;20044;-84
2023/12/06 02:33:29;;;;;;;64.55;30.73;;;3.70;99.90;;;3.84;78.00;99949.94;5053685;28;20066;-83
2023/12/06 02:36:01;;;;;;;70.32;31.05;;;3.60;99.90;;;3.77;77.97;99949.88;5060120;28;20594;-83
2023/12/06 02:38:29;;;;;;;73.10;30.90;;;3.60;99.90;;;3.82;78.15;99955.41;5047783;28;20535;-83
2023/12/06 02:40:59;;;;;;;71.60;30.65;;;3.60;99.90;;;3.85;78.41;99954.22;5079641;28;20045;-83
2023/12/06 02:43:28;;;;;;;70.43;31.42;;;3.60;99.90;;;3.83;78.04;99961.50;5084349;28;20045;-83
2023/12/06 02:46:07;;;;;;;66.32;30.42;;;3.60;99.90;;;3.85;78.54;99959.50;5067464;28;20044;-83
2023/12/06 02:48:35;;;;;;;76.68;32.38;;;3.60;99.90;;;3.86;77.73;99961.16;5037582;28;20462;-83
2023/12/06 02:51:02;;;;;;;70.03;30.80;;;3.60;99.90;;;3.77;78.11;99967.50;5065068;28;20085;-83
2023/12/06 02:53:30;;;;;;;74.72;33.55;;;3.60;99.90;;;3.76;77.76;99960.59;5066280;28;20458;-83
2023/12/06 02:55:57;;;;;;;65.50;30.33;;;3.60;99.90;;;3.82;78.16;99965.16;5081930;28;20080;-83
2023/12/06 02:58:25;;;;;;;69.25;30.92;;;3.60;99.90;;;3.81;77.64;99963.53;5049764;28;20052;-83
2023/12/06 03:00:54;;;;;;;63.83;29.75;;;3.60;99.90;;;3.83;77.55;99967.59;5065954;28;20503;-83
2023/12/06 03:03:21;;;;;;;60.08;29.00;;;3.70;99.90;;;3.83;77.28;99972.06;5046932;28;20041;-83
2023/12/06 03:05:49;;;;;;;62.25;29.05;;;3.60;99.90;;;3.83;77.15;99972.88;5046530;28;20063;-83
2023/12/06 03:08:16;;;;;;;60.63;28.83;;;3.60;99.90;;;3.84;77.41;99978.97;5063989;28;20583;-83
2023/12/06 03:10:47;;;;;;;61.00;28.50;;;3.70;99.90;;;3.84;77.24;99976.31;5046471;28;20095;-83
2023/12/06 03:13:15;;;;;;;59.55;28.35;;;3.60;99.90;;;3.88;76.95;99973.16;5041778;28;20049;-83
2023/12/06 03:15:42;;;;;;;59.35;28.25;;;3.70;99.90;;;3.85;76.82;99972.69;4996702;28;20057;-83
2023/12/06 03:18:11;;;;;;;61.40;29.00;;;3.60;99.90;;;3.85;76.72;99973.50;5046236;28;20056;-83
2023/12/06 03:20:39;;;;;;;58.50;28.45;;;3.60;99.90;;;3.90;76.89;99972.16;5081424;28;20041;-83
2023/12/06 03:23:06;;;;;;;57.42;26.55;;;3.60;99.90;;;3.94;77.07;99984.81;5065765;28;20082;-83
2023/12/06 03:25:34;;;;;;;57.38;27.15;;;3.70;99.90;;;3.94;76.61;99982.16;5049157;28;20053;-83
2023/12/06 03:28:01;;;;;;;64.07;29.83;;;3.60;99.90;;;3.95;76.26;99985.63;5065983;28;20048;-83
2023/12/06 03:30:30;;;;;;;64.95;30.13;;;3.70;99.90;;;3.86;76.32;99984.91;5032584;28;20053;-83
2023/12/06 03:32:58;;;;;;;67.30;29.73;;;3.60;99.90;;;3.83;76.73;99991.34;5046153;28;20136;-83
2023/12/06 03:35:27;;;;;;;63.83;29.17;;;3.50;99.90;;;3.84;76.52;99992.16;5052676;28;20040;-83
2023/12/06 03:37:56;;;;;;;68.15;32.17;;;3.60;99.90;;;3.89;76.63;99989.78;5065623;28;20086;-83
2023/12/06 03:40:23;;;;;;;64.10;30.98;;;3.60;99.90;;;3.89;76.60;99995.06;5069294;28;20045;-83
2023/12/06 03:42:53;;;;;;;64.00;32.67;;;3.60;99.90;;;3.83;76.58;99993.16;5064861;28;20045;-83
2023/12/06 03:45:24;;;;;;;66.90;32.65;;;3.60;99.90;;;3.83;75.81;100001.06;5045073;28;20049;-83
2023/12/06 03:47:51;;;;;;;69.28;34.10;;;3.60;99.90;;;3.81;76.00;100001.25;5062337;28;20052;-83
2023/12/06 03:50:18;;;;;;;67.40;33.17;;;3.60;99.90;;;3.81;76.21;100011.81;5077641;28;20056;-83
2023/12/06 03:52:47;;;;;;;67.20;34.00;;;3.50;99.90;;;3.76;76.53;100002.78;5065911;28;20039;-83
2023/12/06 03:55:22;;;;;;;64.85;34.38;;;3.50;99.90;;;3.78;76.18;100020.06;5065109;28;20113;-83
2023/12/06 03:57:52;;;;;;;67.53;34.42;;;3.50;99.90;;;3.81;76.11;100017.09;5064996;28;20103;-83
2023/12/06 04:03:08;;;;;;;67.05;32.83;;;3.60;99.90;;;3.80;75.95;100022.50;5045400;28;20052;-83
2023/12/06 04:05:38;;;;;;;62.88;32.65;;;3.50;99.90;;;3.79;76.41;100029.59;5063939;28;20052;-83
2023/12/06 04:08:07;;;;;;;62.08;32.35;;;3.50;99.90;;;3.79;76.01;100023.53;5045558;28;20072;-83
2023/12/06 04:10:37;;;;;;;62.20;33.47;;;3.50;99.90;;;3.81;75.94;100027.63;5061045;28;20044;-83
2023/12/06 04:13:16;;;;;;;62.53;32.83;;;3.50;99.90;;;3.79;75.75;100026.16;5065586;28;20071;-83
2023/12/06 04:15:49;;;;;;;58.60;32.53;;;3.50;99.90;;;3.81;75.94;100032.91;5029383;28;20049;-83
2023/12/06 04:18:21;;;;;;;60.60;31.05;;;3.60;99.90;;;3.76;75.73;100034.44;5047170;28;20421;-83
2023/12/06 04:20:48;;;;;;;58.72;31.58;;;3.50;99.90;;;3.76;75.75;100039.72;5052446;28;20060;-83
2023/12/06 04:23:18;;;;;;;56.00;31.50;;;3.50;99.90;;;3.78;75.80;100037.72;5065072;28;20538;-83
2023/12/06 04:25:49;;;;;;;59.13;32.85;;;3.50;99.90;;;3.75;75.71;100035.41;5033353;28;20052;-83
2023/12/06 04:28:17;;;;;;;56.70;32.20;;;3.50;99.90;;;3.69;76.01;100039.59;5049194;28;20128;-83
2023/12/06 04:30:45;;;;;;;57.25;32.10;;;3.70;99.90;;;3.71;76.37;100042.03;5067304;28;20045;-83
2023/12/06 04:33:18;;;;;;;52.78;29.75;;;3.40;99.90;;;3.70;76.53;100043.84;5049173;28;20526;-83
2023/12/06 04:35:46;;;;;;;54.42;30.58;;;3.40;99.90;;;3.72;75.91;100039.25;5015717;28;20055;-83
2023/12/06 04:38:14;;;;;;;53.08;30.55;;;3.40;99.90;;;3.73;76.50;100042.69;5067623;28;20412;-83
2023/12/06 04:40:43;;;;;;;58.03;32.30;;;3.50;99.90;;;3.72;76.51;100056.88;5045937;28;20054;-83
2023/12/06 04:43:11;;;;;;;54.40;29.88;;;3.40;99.90;;;3.75;76.46;100056.50;5052977;28;20044;-83
2023/12/06 04:45:41;;;;;;;54.92;31.70;;;3.50;99.90;;;3.75;76.34;100054.69;5087171;28;20056;-83
2023/12/06 04:48:08;;;;;;;55.45;31.05;;;3.50;99.90;;;3.77;76.15;100057.19;5052073;28;20067;-83
2023/12/06 04:50:36;;;;;;;53.78;29.73;;;3.50;99.90;;;3.78;76.48;100059.63;5078308;28;20094;-83
2023/12/06 04:53:10;;;;;;;55.97;31.15;;;3.50;99.90;;;3.75;76.22;100059.97;5050496;28;20504;-83
2023/12/06 04:56:11;;;;;;;55.42;30.50;;;3.50;99.90;;;3.76;76.29;100066.91;5068932;28;20048;-83
2023/12/06 04:58:44;;;;;;;58.67;31.45;;;3.60;99.90;;;3.78;76.28;100064.91;5068909;28;20045;-83
2023/12/06 05:01:25;;;;;;;55.08;30.80;;;3.60;99.90;;;3.77;76.16;100073.81;5086983;28;20074;-84
2023/12/06 05:03:53;;;;;;;55.90;31.02;;;3.60;99.90;;;3.79;76.19;100071.81;5009324;28;20044;-83
2023/12/06 05:06:23;;;;;;;53.22;30.00;;;3.60;99.90;;;3.81;76.02;100069.03;5048336;28;20065;-83
2023/12/06 05:08:51;;;;;;;53.90;30.77;;;3.60;99.90;;;3.82;76.26;100071.47;5047717;28;20140;-83
2023/12/06 05:11:22;;;;;;;58.10;32.63;;;3.60;99.90;;;3.84;76.32;100074.75;5048146;28;20045;-85
2023/12/06 05:13:50;;;;;;;58.38;31.95;;;3.60;99.90;;;3.83;75.94;100075.75;5065501;28;20512;-83
2023/12/06 05:16:17;;;;;;;62.15;33.80;;;3.60;99.90;;;3.84;76.42;100073.91;5048147;28;20048;-84
2023/12/06 05:18:46;;;;;;;67.57;34.03;;;3.60;99.90;;;3.85;76.17;100086.09;5049986;28;20067;-84
2023/12/06 05:21:18;;;;;;;60.83;33.22;;;3.60;99.90;;;3.87;76.47;100090.22;5046427;28;20503;-83
2023/12/06 05:23:46;;;;;;;66.13;34.95;;;3.60;99.90;;;3.88;76.65;100089.22;5023479;28;20049;-83
2023/12/06 05:26:14;;;;;;;65.97;35.15;;;3.60;99.90;;;3.89;76.62;100097.94;5062169;28;20132;-83
2023/12/06 05:28:43;;;;;;;64.70;34.10;;;3.70;99.90;;;3.91;76.81;100097.78;5063160;28;20401;-83
2023/12/06 05:31:11;;;;;;;60.33;33.70;;;3.70;99.90;;;3.90;76.79;100099.59;5081423;28;20040;-83
2023/12/06 05:33:38;;;;;;;65.85;35.40;;;3.70;99.90;;;3.92;76.57;100104.69;5057782;28;20086;-85
2023/12/06 05:36:09;;;;;;;63.60;34.15;;;3.70;99.90;;;3.95;76.73;100099.06;5075513;28;20438;-85
2023/12/06 05:38:36;;;;;;;59.80;32.65;;;3.70;99.90;;;3.96;76.87;100101.53;5007720;28;20045;-85
2023/12/06 05:41:05;;;;;;;61.53;32.60;;;3.70;99.90;;;3.97;77.30;100105.00;5064730;28;20075;-81
2023/12/06 05:43:32;;;;;;;62.92;33.25;;;3.70;99.90;;;3.91;77.30;100110.97;5083637;28;20033;-82
2023/12/06 05:46:02;;;;;;;64.78;33.33;;;3.60;99.90;;;3.92;77.47;100116.06;5085702;28;20040;-82
2023/12/06 05:48:31;;;;;;;63.95;33.50;;;3.70;99.90;;;3.94;77.53;100116.69;5057067;28;20060;-83
2023/12/06 05:50:59;;;;;;;64.63;33.92;;;3.70;99.90;;;3.96;77.54;100112.09;5047746;28;20049;-82
2023/12/06 05:53:26;;;;;;;58.65;32.83;;;3.70;99.90;;;3.96;77.79;100116.53;5047903;28;20052;-82
2023/12/06 05:55:54;;;;;;;64.30;34.15;;;3.70;99.90;;;3.97;77.99;100113.72;5065781;28;20083;-82
2023/12/06 05:58:21;;;;;;;64.68;33.38;;;3.70;99.90;;;4.03;77.52;100120.09;5030435;28;20052;-82
2023/12/06 06:00:49;;;;;;;61.35;33.35;;;3.80;99.90;;;4.04;77.96;100119.91;5066119;28;20049;-84
2023/12/06 06:03:18;;;;;;;62.17;32.67;;;3.80;99.90;;;4.05;77.78;100121.59;5065831;28;20071;-82
2023/12/06 06:05:46;;;;;;;66.60;33.78;;;4.00;99.90;;;4.06;77.85;100122.41;5047447;28;20045;-82
2023/12/06 06:08:13;;;;;;;72.82;35.78;;;3.80;99.90;;;4.02;77.62;100126.38;5065550;28;20621;-82
2023/12/06 06:10:41;;;;;;;66.10;33.80;;;3.80;99.90;;;4.01;78.35;100130.84;5046665;28;20055;-82
2023/12/06 06:13:08;;;;;;;61.85;33.25;;;3.80;99.90;;;4.00;78.43;100126.56;5030608;28;20041;-82
2023/12/06 06:15:36;;;;;;;61.75;32.10;;;3.70;99.90;;;4.03;78.80;100139.38;5047150;28;20043;-82
2023/12/06 06:18:05;;;;;;;64.63;33.30;;;3.80;99.90;;;4.04;78.38;100140.22;5047155;28;20076;-82
2023/12/06 06:20:35;;;;;;;62.30;31.48;;;3.80;99.90;;;4.07;78.44;100138.03;5047425;28;20045;-82
2023/12/06 06:23:02;;;;;;;62.13;32.88;;;3.80;99.90;;;4.05;78.63;100153.25;5047773;28;20045;-82
2023/12/06 06:25:30;;;;;;;59.38;32.00;;;3.80;99.90;;;4.07;79.23;100145.97;5031241;28;20505;-82
2023/12/06 06:27:58;;;;;;;60.90;32.08;;;3.80;99.90;;;4.11;79.05;100141.97;5064661;28;20080;-82
2023/12/06 06:30:28;;;;;;;60.80;32.90;;;3.90;99.90;;;4.01;78.59;100151.94;5030531;28;20060;-82
2023/12/06 06:32:57;;;;;;;60.78;31.95;;;3.80;99.90;;;4.03;79.02;100163.13;5046993;28;20059;-82
2023/12/06 06:35:25;;;;;;;62.08;31.58;;;3.80;99.90;;;4.09;79.42;100157.16;5064352;28;20151;-81
2023/12/06 06:37:56;;;;;;;58.30;32.00;;;3.90;99.90;;;4.11;79.01;100149.88;5046898;28;20041;-82
2023/12/06 06:40:24;;;;;;;58.50;31.40;;;3.90;99.90;;;4.13;79.26;100145.25;5047279;28;20075;-82
2023/12/06 06:42:54;;;;;;;55.28;30.73;;;3.90;99.90;;;4.12;78.93;100162.09;5046064;28;20492;-82
2023/12/06 06:45:22;;;;;;;55.15;30.92;;;3.90;99.90;;;4.14;79.31;100157.44;5046997;28;20531;-82
2023/12/06 06:47:51;;;;;;;53.53;29.98;;;3.90;99.90;;;4.16;79.54;100157.28;5064014;28;20056;-82
2023/12/06 06:50:18;;;;;;;55.80;30.77;;;4.00;99.90;;;4.20;79.24;100165.63;5046945;28;20068;-82
2023/12/06 06:52:46;;;;;;;66.22;33.22;;;4.00;99.90;;;4.22;79.08;100167.13;5046498;28;20496;-82
2023/12/06 06:55:15;;;;;;;59.78;32.63;;;4.00;99.90;;;4.23;79.52;100163.47;5064776;28;20068;-82
2023/12/06 06:57:43;;;;;;;54.70;29.88;;;4.00;99.90;;;4.18;79.27;100171.09;5046366;28;20071;-82
2023/12/06 07:00:13;;;;;;;55.90;30.75;;;4.00;99.90;;;4.18;79.39;100173.75;5046109;28;20415;-82
2023/12/06 07:02:40;;;;;;;59.35;31.58;;;4.00;99.90;;;4.20;79.54;100176.19;5047144;28;20049;-82
2023/12/06 07:05:12;;;;;;;57.90;30.65;;;4.00;99.90;;;4.23;79.20;100181.13;5046380;28;20033;-82
2023/12/06 07:07:41;;;;;;;56.55;29.92;;;4.10;99.90;;;4.23;79.27;100179.31;5029142;28;20040;-84
2023/12/06 07:10:10;;;;;;;58.15;31.15;;;4.10;99.90;;;4.25;79.62;100176.50;5036513;28;20049;-85
2023/12/06 07:12:40;;;;;;;55.72;29.83;;;4.10;99.90;;;4.26;79.45;100178.97;5040968;28;20064;-84
2023/12/06 07:15:14;;;;;;;55.13;30.83;;;4.10;99.90;;;4.28;79.66;100187.53;5009169;28;20045;-84
2023/12/06 07:17:44;;;;;;;55.50;30.40;;;4.10;99.90;;;4.29;79.41;100175.13;5058631;28;20037;-84
2023/12/06 07:20:13;;;;;;;56.28;30.33;;;4.10;99.90;;;4.33;79.43;100187.81;5041447;28;20099;-84
2023/12/06 07:22:43;;;;;;;59.13;31.20;;;4.10;99.90;;;4.35;79.79;100198.22;4988639;28;20137;-84
2023/12/06 07:25:15;;;;;;;60.05;30.48;;;4.20;99.90;;;4.29;79.42;100199.72;5057756;28;20053;-84
2023/12/06 07:27:45;;;;;;;60.33;30.88;;;4.10;99.90;;;4.21;79.98;100201.63;5040381;28;20053;-85
2023/12/06 07:30:16;;;;;;;58.33;30.05;;;4.10;99.90;;;4.23;80.43;100199.59;5036103;28;20103;-87
2023/12/06 07:32:44;;;;;;;;;;;4.10;99.90;;;4.24;80.57;100206.53;5042431;28;20045;-84
2023/12/06 07:35:12;;;;;;;62.47;31.52;;;4.00;99.90;;;4.10;80.75;100205.50;5042537;28;19920;-84
2023/12/06 07:37:39;;;;;;;64.93;32.65;;;4.00;99.90;;;4.07;80.83;100206.66;5060099;28;20045;-83
2023/12/06 07:40:11;;;;;;;66.80;34.72;;;4.00;99.90;;;4.04;81.01;100207.00;5063605;28;20052;-83
2023/12/06 07:42:39;;;;;;;70.75;34.72;;;4.00;99.90;;;4.06;81.52;100210.28;5030830;28;20069;-84
2023/12/06 07:45:11;;;;;;;65.28;33.60;;;4.00;99.90;;;4.06;81.51;100215.56;5036087;28;20045;-84
2023/12/06 07:47:40;;;;;;;62.03;34.17;;;3.90;99.90;;;4.13;81.50;100215.69;5067362;28;20097;-83
2023/12/06 07:50:09;;;;;;;66.97;33.63;;;4.00;99.90;;;4.18;81.52;100213.34;5034538;28;20047;-84
2023/12/06 07:52:39;;;;;;;60.80;32.65;;;4.00;99.90;;;4.20;81.03;100216.63;5035049;28;20045;-83
2023/12/06 07:55:09;;;;;;;62.90;34.17;;;4.10;99.90;;;4.16;81.35;100225.91;5050802;28;20128;-84
2023/12/06 07:57:38;;;;;;;60.42;33.53;;;4.00;99.90;;;4.17;81.79;100224.88;5035299;28;20056;-84
2023/12/06 08:00:11;;;;;;;61.47;34.53;;;4.10;99.90;;;4.12;81.81;100227.25;5069279;28;20045;-84
2023/12/06 08:02:42;;;;;;;60.80;32.92;;;4.10;99.90;;;4.18;81.69;100218.59;5051145;28;20045;-84
2023/12/06 08:05:10;;;;;;;63.38;35.22;;;4.20;99.90;;;4.24;82.10;100228.47;5051369;28;20049;-84
2023/12/06 08:07:39;;;;;;;61.33;32.17;;;4.20;99.90;;;4.28;81.65;100232.41;5067812;28;20365;-84
2023/12/06 08:10:12;;;;;;;61.80;33.08;;;4.20;99.90;;;4.24;81.72;100227.63;5050378;28;20045;-83
2023/12/06 08:12:40;;;;;;;59.03;32.08;;;4.20;99.90;;;4.27;81.85;100237.84;5050762;28;20415;-83
2023/12/06 08:15:10;;;;;;;59.00;32.72;;;4.30;99.90;;;4.29;81.75;100244.59;5069839;28;20040;-83
2023/12/06 08:17:39;;;;;;;59.60;32.53;;;4.20;99.90;;;4.30;81.72;100245.44;5034736;28;20056;-83
2023/12/06 08:20:11;;;;;;;60.53;32.90;;;4.20;99.90;;;4.32;81.91;100246.06;5052136;28;20048;-83
2023/12/06 08:22:39;;;;;;;58.65;32.88;;;4.20;99.90;;;4.33;81.87;100252.97;5052875;28;20063;-84
2023/12/06 08:25:07;;;;;;;58.40;33.10;;;4.20;99.90;;;4.32;82.00;100251.34;5053609;28;20045;-83
2023/12/06 08:27:38;;;;;;;59.42;32.45;;;4.30;99.90;;;4.33;81.92;100252.97;5052166;28;20045;-84
2023/12/06 08:30:10;;;;;;;58.90;32.10;;;4.30;99.90;;;4.39;82.24;100262.84;5069282;28;20045;-84
2023/12/06 08:32:37;;;;;;;60.47;32.17;;;4.30;99.90;;;4.39;82.25;100260.19;5069638;28;20076;-83
2023/12/06 08:35:07;;;;;;;57.00;31.65;;;4.30;99.90;;;4.42;82.25;100278.34;5051137;28;20538;-84
2023/12/06 08:37:36;;;;;;;63.58;33.30;;;4.30;99.90;;;4.42;82.02;100273.06;5051465;28;20053;-84
2023/12/06 08:40:10;;;;;;;59.70;32.10;;;4.30;99.90;;;4.35;82.06;100275.59;5050611;28;20045;-84
2023/12/06 08:42:38;;;;;;;54.28;31.55;;;4.30;99.90;;;4.41;82.37;100281.97;5052192;28;20045;-84
2023/12/06 08:45:09;;;;;;;54.42;30.45;;;4.30;99.90;;;4.39;82.52;100283.94;5069138;28;20049;-84
2023/12/06 08:47:37;;;;;;;61.90;32.50;;;4.30;99.90;;;4.37;82.38;100293.88;5049890;28;20040;-84
2023/12/06 08:50:06;;;;;;;53.70;29.48;;;4.30;99.90;;;4.33;82.60;100289.94;5068852;28;20045;-84
2023/12/06 08:52:35;;;;;;;56.83;31.80;;;4.30;99.90;;;4.30;82.68;100285.84;5050484;28;20049;-84
2023/12/06 08:55:04;;;;;;;53.25;29.50;;;4.30;99.90;;;4.39;82.84;100294.50;5050839;28;20419;-84
2023/12/06 08:57:32;;;;;;;55.00;31.27;;;4.30;99.90;;;4.44;83.01;100278.16;5050776;28;20068;-84
2023/12/06 08:59:59;;;;;;;52.42;31.17;;;4.40;99.90;;;4.50;82.49;100282.75;5049280;28;20053;-84
2023/12/06 09:02:28;;;;;;;56.55;30.98;;;4.40;99.90;;;4.51;82.20;100279.91;5068387;28;20061;-84
2023/12/06 09:04:56;;;;;;;53.03;30.20;;;4.40;99.90;;;4.52;82.74;100286.03;5067093;28;20041;-84
2023/12/06 09:07:24;;;;;;;56.65;29.45;;;4.40;99.90;;;4.55;82.53;100283.84;5068381;28;20099;-84
2023/12/06 09:09:52;;;;;;;54.75;29.40;;;4.40;99.90;;;4.55;82.79;100291.78;5049859;28;20071;-84
2023/12/06 09:12:21;;;;;;;50.05;28.05;;;4.50;99.90;;;4.53;82.72;100285.84;5040028;28;20052;-87
2023/12/06 09:14:48;;;;;;;51.72;28.73;;;4.50;99.90;;;4.51;82.86;100289.66;5037640;28;20037;-87
2023/12/06 09:17:16;;;;;;;50.38;28.35;;;4.40;99.90;;;4.56;82.93;100292.59;5038120;28;20496;-86
2023/12/06 09:19:45;;;;;;;55.55;29.70;;;4.50;99.90;;;4.55;83.00;100296.25;5037983;28;20048;-85
2023/12/06 09:22:15;;;;;;;52.20;28.15;;;4.50;99.90;;;4.44;83.01;100305.41;5039457;28;20067;-86
2023/12/06 09:24:44;;;;;;;43.97;25.65;;;4.40;99.90;;;4.40;83.54;100304.09;5039273;28;20155;-86
2023/12/06 09:27:12;;;;;;;43.80;24.98;;;4.50;99.90;;;4.41;83.42;100308.38;5039089;28;20041;-87
2023/12/06 09:29:41;;;;;;;37.60;22.73;;;4.40;99.90;;;4.40;83.52;100304.09;5021403;28;20053;-86
2023/12/06 09:32:09;;;;;;;37.45;21.98;;;4.40;99.90;;;4.44;83.47;100309.84;5040109;28;20095;-85
2023/12/06 09:34:36;;;;;;;38.22;22.45;;;4.40;99.90;;;4.46;83.81;100311.31;5062960;28;20049;-84
2023/12/06 09:37:11;;;;;;;35.95;21.27;;;4.40;99.90;;;4.50;83.71;100317.91;5064026;28;20496;-84
2023/12/06 09:39:39;;;;;;;36.20;20.63;;;4.40;99.90;;;4.55;83.66;100327.94;5064807;28;20072;-84
2023/12/06 09:42:11;;;;;;;28.75;19.25;;;4.50;99.90;;;4.37;83.46;100325.56;5013484;28;20067;-84
2023/12/06 09:44:41;;;;;;;28.70;18.63;;;4.40;99.90;;;4.43;83.56;100329.31;5029013;28;20064;-85
2023/12/06 09:47:08;;;;;;;28.33;18.58;;;4.40;99.90;;;4.46;83.22;100335.09;5026181;28;20041;-85
2023/12/06 09:49:36;;;;;;;29.25;17.92;;;4.40;99.90;;;4.53;83.64;100335.19;5026219;28;20060;-85
2023/12/06 09:52:18;;;;;;;31.42;18.88;;;4.60;99.90;;;4.49;83.10;100337.38;5041697;28;20496;-85
2023/12/06 09:54:47;;;;;;;29.95;17.52;;;4.50;99.90;;;4.55;83.04;100331.41;5060139;28;20118;-85
2023/12/06 09:57:15;;;;;;;28.92;16.70;;;4.50;99.90;;;4.58;83.24;100340.78;5059644;28;20439;-85
2023/12/06 09:59:43;;;;;;;23.77;15.80;;;4.50;99.90;;;4.53;83.00;100338.66;5040999;28;20416;-85
2023/12/06 10:02:10;;;;;;;25.08;16.80;;;4.50;99.90;;;4.56;83.28;100335.66;5040012;28;20045;-85
2023/12/06 10:04:38;;;;;;;22.58;15.45;;;4.50;99.90;;;4.57;83.22;100336.50;5039955;28;20492;-85
2023/12/06 10:07:05;;;;;;;22.77;15.20;;;4.50;99.90;;;4.62;83.15;100344.72;5024372;28;20041;-85
2023/12/06 10:09:35;;;;;;;23.77;15.70;;;4.60;99.90;;;4.68;82.85;100349.28;5058147;28;20064;-85
2023/12/06 10:12:09;;;;;;;23.70;16.10;;;4.70;99.90;;;4.71;82.62;100348.13;5040034;28;20049;-85
2023/12/06 10:14:36;;;;;;;27.65;16.52;;;4.60;99.90;;;4.75;83.02;100352.06;5040725;28;20045;-85
2023/12/06 10:17:05;;;;;;;23.20;15.85;;;4.70;99.90;;;4.78;83.13;100351.69;5058027;28;20053;-85
2023/12/06 10:19:33;;;;;;;27.05;16.80;;;4.70;99.90;;;4.79;83.00;100350.72;5058710;28;20443;-85
2023/12/06 10:22:03;;;;;;;28.90;19.13;;;4.70;99.90;;;4.83;83.37;100344.91;5040600;28;20041;-85
2023/12/06 10:24:30;;;;;;;32.35;19.40;;;4.70;99.90;;;4.82;83.17;100359.09;5058175;28;20045;-85
2023/12/06 10:27:09;;;;;;;36.58;21.70;;;4.70;99.90;;;4.79;83.07;100351.53;5024442;28;20036;-85